createdAt,value
2018-03-30T00:00:55.303Z,83.12
2018-03-30T00:03:27.417Z,83.02
2018-03-30T00:05:58.309Z,82.40
2018-03-30T00:08:28.574Z,82.20
2018-03-30T00:11:00.426Z,81.84
2018-03-30T00:13:30.992Z,82.72
2018-03-30T00:16:01.642Z,82.40
2018-03-30T00:18:31.530Z,82.60
2018-03-30T00:21:02.024Z,82.08
2018-03-30T00:23:32.397Z,82.79
2018-03-30T00:26:02.491Z,83.32
2018-03-30T00:28:32.501Z,83.55
2018-03-30T00:31:04.833Z,84.03
2018-03-30T00:33:35.926Z,84.37
2018-03-30T00:36:05.801Z,84.34
2018-03-30T00:38:37.152Z,84.97
2018-03-30T00:41:06.688Z,84.78
2018-03-30T00:43:36.884Z,84.71
2018-03-30T00:46:06.635Z,83.74
2018-03-30T00:48:37.052Z,82.44
2018-03-30T00:51:07.680Z,82.17
2018-03-30T00:53:51.305Z,81.46
2018-03-30T00:56:20.834Z,81.45
2018-03-30T00:58:50.323Z,81.28
2018-03-30T01:01:20.248Z,79.99
2018-03-30T01:03:50.760Z,79.98
2018-03-30T01:06:20.495Z,80.66
2018-03-30T01:08:50.863Z,80.38
2018-03-30T01:11:21.287Z,80.02
2018-03-30T01:13:51.313Z,80.10
2018-03-30T01:16:22.819Z,79.60
2018-03-30T01:18:52.405Z,79.37
2018-03-30T01:21:22.071Z,79.02
2018-03-30T01:23:52.251Z,78.66
2018-03-30T01:26:21.986Z,78.62
2018-03-30T01:28:51.678Z,78.64
2018-03-30T01:31:21.463Z,78.58
2018-03-30T01:33:51.096Z,78.72
2018-03-30T01:36:20.780Z,78.81
2018-03-30T01:38:50.282Z,78.78
2018-03-30T01:41:21.409Z,78.89
2018-03-30T01:43:52.593Z,78.96
2018-03-30T01:46:22.675Z,78.98
2018-03-30T01:48:53.990Z,79.38
2018-03-30T01:51:23.787Z,79.01
2018-03-30T01:53:54.325Z,78.87
2018-03-30T01:56:24.914Z,79.08
2018-03-30T01:58:54.829Z,79.17
2018-03-30T02:01:24.454Z,79.31
2018-03-30T02:03:54.308Z,79.53
2018-03-30T02:06:25.121Z,79.43
2018-03-30T02:08:54.720Z,79.53
2018-03-30T02:11:24.238Z,79.49
2018-03-30T02:13:54.522Z,79.56
2018-03-30T02:16:24.321Z,78.97
2018-03-30T02:18:53.999Z,79.28
2018-03-30T02:21:23.882Z,80.46
2018-03-30T02:23:53.343Z,80.55
2018-03-30T02:26:23.999Z,80.54
2018-03-30T02:28:54.575Z,80.41
2018-03-30T02:31:24.898Z,80.69
2018-03-30T02:33:54.655Z,80.93
2018-03-30T02:36:25.011Z,80.82
2018-03-30T02:38:55.060Z,81.71
2018-03-30T02:41:25.083Z,82.02
2018-03-30T02:43:55.801Z,82.57
2018-03-30T02:46:25.931Z,82.40
2018-03-30T02:48:55.913Z,82.50
2018-03-30T02:51:25.651Z,82.39
2018-03-30T02:53:58.583Z,82.59
2018-03-30T02:56:28.876Z,82.71
2018-03-30T02:58:58.949Z,82.98
2018-03-30T03:01:29.231Z,83.40
2018-03-30T03:03:59.764Z,83.26
2018-03-30T03:06:31.261Z,83.58
2018-03-30T03:09:23.008Z,83.57
2018-03-30T03:12:20.654Z,83.85
2018-03-30T03:14:56.644Z,83.70
2018-03-30T03:17:26.271Z,83.84
2018-03-30T03:20:00.799Z,83.92
2018-03-30T03:22:33.038Z,83.57
2018-03-30T03:25:02.803Z,83.72
2018-03-30T03:27:35.039Z,84.18
2018-03-30T03:30:05.760Z,84.36
2018-03-30T03:32:35.321Z,84.61
2018-03-30T03:35:06.354Z,84.76
2018-03-30T03:37:36.644Z,84.87
2018-03-30T03:40:06.297Z,85.04
2018-03-30T03:42:36.978Z,84.99
2018-03-30T03:45:07.403Z,84.85
2018-03-30T03:47:39.321Z,84.65
2018-03-30T03:50:09.657Z,84.50
2018-03-30T03:52:40.417Z,84.51
2018-03-30T03:55:10.105Z,84.61
2018-03-30T04:08:38.080Z,84.37
2018-03-30T04:11:07.992Z,84.24
2018-03-30T04:13:37.684Z,84.41
2018-03-30T04:16:07.142Z,84.13
2018-03-30T04:18:36.958Z,84.10
2018-03-30T04:21:07.331Z,83.83
2018-03-30T04:23:37.024Z,83.77
2018-03-30T04:26:06.720Z,83.87
2018-03-30T04:28:37.063Z,83.81
2018-03-30T04:31:06.766Z,83.94
2018-03-30T04:33:36.977Z,84.05
2018-03-30T04:36:06.724Z,84.14
2018-03-30T04:38:36.316Z,84.18
2018-03-30T04:41:05.914Z,84.08
2018-03-30T04:43:36.366Z,84.13
2018-03-30T04:46:07.114Z,84.16
2018-03-30T04:48:36.786Z,84.23
2018-03-30T04:51:06.737Z,84.17
2018-03-30T04:53:36.323Z,84.19
2018-03-30T04:56:06.836Z,83.87
2018-03-30T04:58:37.108Z,83.91
2018-03-30T05:01:09.169Z,84.02
2018-03-30T05:03:39.843Z,83.91
2018-03-30T05:06:11.549Z,83.89
2018-03-30T05:08:41.252Z,83.94
2018-03-30T05:11:11.896Z,83.85
2018-03-30T05:13:43.040Z,83.72
2018-03-30T05:16:14.073Z,83.74
2018-03-30T05:18:44.602Z,83.49
2018-03-30T05:21:14.781Z,83.90
2018-03-30T05:23:45.597Z,83.37
2018-03-30T05:26:15.212Z,83.33
2018-03-30T05:28:46.734Z,83.25
2018-03-30T05:31:16.577Z,83.24
2018-03-30T05:33:47.362Z,83.23
2018-03-30T05:36:17.927Z,83.17
2018-03-30T05:38:48.180Z,83.11
2018-03-30T05:41:17.823Z,83.02
2018-03-30T05:43:47.441Z,83.13
2018-03-30T05:46:17.691Z,83.20
2018-03-30T05:48:49.174Z,83.31
2018-03-30T05:51:19.765Z,83.01
2018-03-30T05:53:50.102Z,82.97
2018-03-30T05:56:19.748Z,82.92
2018-03-30T05:58:49.506Z,82.97
2018-03-30T06:01:23.942Z,82.90
2018-03-30T06:03:53.751Z,82.63
2018-03-30T06:06:25.603Z,82.33
2018-03-30T06:08:56.931Z,82.26
2018-03-30T06:11:27.274Z,82.15
2018-03-30T06:13:57.299Z,81.94
2018-03-30T06:16:27.177Z,82.04
2018-03-30T06:18:56.795Z,82.48
2018-03-30T06:21:26.626Z,82.37
2018-03-30T06:23:57.252Z,82.55
2018-03-30T06:26:27.592Z,82.02
2018-03-30T06:28:57.729Z,82.13
2018-03-30T06:31:28.484Z,82.19
2018-03-30T06:33:59.627Z,82.28
2018-03-30T06:36:30.862Z,82.22
2018-03-30T06:39:01.187Z,82.34
2018-03-30T06:41:47.082Z,82.01
2018-03-30T06:44:19.042Z,81.67
2018-03-30T06:46:49.742Z,81.70
2018-03-30T06:49:20.367Z,81.58
2018-03-30T06:51:51.393Z,81.30
2018-03-30T06:54:21.710Z,81.27
2018-03-30T06:56:52.865Z,81.09
2018-03-30T06:59:22.982Z,80.77
2018-03-30T07:01:52.496Z,80.80
2018-03-30T07:04:22.111Z,79.88
2018-03-30T07:06:51.701Z,80.14
2018-03-30T07:09:26.109Z,79.76
2018-03-30T07:11:56.044Z,79.42
2018-03-30T07:14:25.806Z,78.82
2018-03-30T07:16:56.040Z,77.17
2018-03-30T07:19:27.083Z,76.69
2018-03-30T07:21:56.676Z,75.34
2018-03-30T07:24:26.320Z,74.83
2018-03-30T07:26:56.744Z,75.19
2018-03-30T07:29:26.638Z,74.87
2018-03-30T07:31:56.413Z,72.92
2018-03-30T07:34:26.000Z,73.58
2018-03-30T07:36:55.721Z,72.46
2018-03-30T07:39:25.385Z,71.98
2018-03-30T07:41:56.159Z,69.67
2018-03-30T07:44:27.120Z,68.94
2018-03-30T07:46:57.930Z,69.61
2018-03-30T07:49:28.721Z,69.81
2018-03-30T07:51:58.673Z,69.70
2018-03-30T07:54:28.312Z,70.09
2018-03-30T07:56:58.127Z,70.17
2018-03-30T07:59:27.703Z,69.13
2018-03-30T08:04:36.774Z,68.61
2018-03-30T08:07:08.102Z,69.98
2018-03-30T08:09:38.854Z,70.41
2018-03-30T08:12:09.172Z,69.11
2018-03-30T08:14:40.103Z,68.50
2018-03-30T08:17:09.576Z,69.21
2018-03-30T08:19:40.938Z,69.26
2018-03-30T08:22:11.310Z,68.57
2018-03-30T08:24:40.824Z,68.16
2018-03-30T08:27:10.432Z,69.73
2018-03-30T08:29:39.947Z,70.21
2018-03-30T08:32:09.644Z,69.08
2018-03-30T08:34:39.115Z,69.04
2018-03-30T08:37:08.693Z,69.83
2018-03-30T08:39:50.068Z,69.18
2018-03-30T08:42:19.635Z,68.96
2018-03-30T08:44:49.455Z,67.92
2018-03-30T08:47:19.595Z,67.83
2018-03-30T08:49:49.121Z,66.63
2018-03-30T08:52:19.412Z,64.76
2018-03-30T08:54:50.114Z,65.30
2018-03-30T08:57:20.980Z,64.78
2018-03-30T08:59:50.791Z,63.33
2018-03-30T09:02:21.305Z,64.67
2018-03-30T09:04:51.033Z,62.41
2018-03-30T09:07:21.960Z,63.64
2018-03-30T09:09:51.880Z,62.35
2018-03-30T09:12:22.111Z,61.06
2018-03-30T09:14:52.469Z,58.87
2018-03-30T09:17:22.522Z,58.71
2018-03-30T09:19:52.652Z,57.89
2018-03-30T09:22:22.949Z,57.79
2018-03-30T09:24:53.217Z,57.70
2018-03-30T09:27:23.270Z,57.44
2018-03-30T09:29:53.734Z,57.43
2018-03-30T09:32:23.533Z,56.95
2018-03-30T09:34:53.896Z,55.21
2018-03-30T09:37:23.506Z,54.83
2018-03-30T09:39:53.102Z,55.07
2018-03-30T09:42:22.603Z,55.48
2018-03-30T09:44:52.418Z,53.73
2018-03-30T09:47:22.104Z,51.83
2018-03-30T09:49:52.537Z,51.23
2018-03-30T09:52:22.779Z,54.01
2018-03-30T09:54:52.421Z,53.91
2018-03-30T09:57:21.905Z,55.77
2018-03-30T09:59:51.543Z,55.44
2018-03-30T10:02:21.347Z,54.46
2018-03-30T10:05:05.751Z,53.49
2018-03-30T10:07:35.842Z,53.96
2018-03-30T10:10:05.833Z,55.03
2018-03-30T10:12:35.453Z,54.39
2018-03-30T10:15:05.149Z,52.99
2018-03-30T10:17:34.919Z,53.72
2018-03-30T10:20:05.592Z,51.55
2018-03-30T10:22:35.273Z,52.25
2018-03-30T10:25:05.521Z,51.64
2018-03-30T10:27:36.286Z,50.42
2018-03-30T10:30:06.489Z,49.00
2018-03-30T10:32:36.107Z,49.21
2018-03-30T10:35:05.792Z,48.52
2018-03-30T10:37:35.452Z,49.09
2018-03-30T10:40:06.056Z,49.47
2018-03-30T10:42:36.113Z,50.45
2018-03-30T10:45:06.585Z,50.06
2018-03-30T10:47:36.672Z,50.99
2018-03-30T10:50:07.756Z,49.46
2018-03-30T10:52:37.407Z,49.94
2018-03-30T10:55:07.938Z,51.81
2018-03-30T10:57:37.798Z,50.60
2018-03-30T11:00:07.404Z,50.27
2018-03-30T11:02:36.973Z,51.08
2018-03-30T11:05:07.503Z,50.05
2018-03-30T11:07:37.734Z,51.04
2018-03-30T11:10:08.414Z,50.27
2018-03-30T11:12:39.040Z,48.90
2018-03-30T11:15:10.438Z,49.82
2018-03-30T11:17:40.698Z,49.24
2018-03-30T11:20:19.534Z,49.26
2018-03-30T11:22:50.900Z,48.09
2018-03-30T11:25:22.752Z,48.81
2018-03-30T11:27:52.318Z,50.40
2018-03-30T11:30:24.194Z,50.32
2018-03-30T11:32:56.286Z,48.18
2018-03-30T11:35:26.633Z,50.27
2018-03-30T11:37:56.380Z,51.18
2018-03-30T11:40:28.322Z,50.99
2018-03-30T11:42:58.944Z,49.88
2018-03-30T11:45:29.035Z,49.49
2018-03-30T11:48:01.259Z,48.98
2018-03-30T11:50:32.327Z,47.87
2018-03-30T11:53:02.363Z,48.44
2018-03-30T11:55:32.113Z,46.86
2018-03-30T11:58:02.362Z,45.08
2018-03-30T12:00:33.027Z,44.69
2018-03-30T12:03:02.968Z,47.56
2018-03-30T12:05:35.051Z,45.44
2018-03-30T12:08:04.950Z,45.30
2018-03-30T12:10:34.789Z,44.06
2018-03-30T12:13:05.382Z,45.19
2018-03-30T12:15:35.817Z,43.46
2018-03-30T12:18:06.163Z,43.16
2018-03-30T12:20:36.481Z,45.26
2018-03-30T12:23:06.375Z,45.29
2018-03-30T12:25:36.299Z,44.87
2018-03-30T12:28:06.335Z,44.52
2018-03-30T12:30:37.017Z,45.55
2018-03-30T12:33:07.801Z,45.49
2018-03-30T12:35:38.952Z,45.61
2018-03-30T12:38:10.000Z,46.97
2018-03-30T12:40:41.326Z,47.05
2018-03-30T12:43:11.667Z,46.88
2018-03-30T12:45:44.027Z,46.89
2018-03-30T12:48:15.332Z,48.90
2018-03-30T12:50:46.519Z,48.42
2018-03-30T12:53:17.190Z,49.37
2018-03-30T12:55:48.347Z,49.69
2018-03-30T12:58:19.868Z,49.37
2018-03-30T13:00:51.511Z,48.04
2018-03-30T13:03:21.630Z,49.27
2018-03-30T13:06:00.919Z,50.54
2018-03-30T13:08:34.035Z,50.05
2018-03-30T13:11:03.992Z,49.83
2018-03-30T13:13:34.185Z,49.87
2018-03-30T13:16:04.928Z,49.74
2018-03-30T13:18:35.054Z,50.63
2018-03-30T13:21:05.575Z,50.34
2018-03-30T13:23:35.572Z,49.73
2018-03-30T13:26:06.286Z,49.01
2018-03-30T13:28:36.055Z,47.33
2018-03-30T13:31:06.095Z,48.81
2018-03-30T13:33:36.071Z,48.92
2018-03-30T13:36:06.042Z,49.26
2018-03-30T13:38:36.580Z,50.01
2018-03-30T13:44:08.372Z,50.90
2018-03-30T13:46:38.728Z,50.44
2018-03-30T13:49:08.891Z,51.32
2018-03-30T13:51:48.715Z,51.60
2018-03-30T13:54:19.719Z,51.50
2018-03-30T13:56:53.650Z,51.57
2018-03-30T13:59:29.512Z,51.34
2018-03-30T14:02:07.532Z,50.69
2018-03-30T14:04:42.927Z,51.48
2018-03-30T14:10:19.242Z,52.47
2018-03-30T14:13:03.365Z,53.70
2018-03-30T14:15:36.473Z,54.58
2018-03-30T14:18:07.412Z,54.32
2018-03-30T14:20:39.961Z,54.10
2018-03-30T14:23:17.462Z,55.42
2018-03-30T14:28:56.251Z,54.43
2018-03-30T14:31:33.137Z,52.92
2018-03-30T14:34:07.033Z,53.43
2018-03-30T14:36:51.785Z,53.53
2018-03-30T14:39:33.990Z,54.01
2018-03-30T14:42:11.535Z,54.61
2018-03-30T14:48:04.887Z,54.67
2018-03-30T14:53:41.363Z,53.85
2018-03-30T14:56:17.137Z,53.87
2018-03-30T14:59:01.479Z,54.06
2018-03-30T15:01:43.677Z,54.40
2018-03-30T15:04:16.904Z,54.62
2018-03-30T15:09:56.056Z,58.43
2018-03-30T15:12:36.836Z,59.01
2018-03-30T15:15:26.974Z,58.98
2018-03-30T15:18:08.775Z,59.69
2018-03-30T15:20:49.147Z,59.87
2018-03-30T15:26:24.305Z,60.80
2018-03-30T15:29:06.018Z,60.16
2018-03-30T15:34:38.272Z,58.56
2018-03-30T15:37:24.179Z,56.97
2018-03-30T15:39:59.828Z,57.70
2018-03-30T15:42:33.849Z,57.17
2018-03-30T15:45:14.816Z,57.70
2018-03-30T15:47:46.134Z,58.06
2018-03-30T15:50:17.445Z,57.38
2018-03-30T15:59:52.465Z,57.03
2018-03-30T16:03:04.687Z,57.53
2018-03-30T16:05:34.707Z,57.15
2018-03-30T16:08:05.376Z,57.72
2018-03-30T16:10:51.650Z,57.78
2018-03-30T16:13:21.711Z,59.52
2018-03-30T16:15:52.298Z,62.04
2018-03-30T16:18:22.785Z,63.83
2018-03-30T16:20:52.154Z,67.90
2018-03-30T16:23:23.166Z,68.98
2018-03-30T16:25:52.581Z,70.31
2018-03-30T16:28:21.911Z,71.76
2018-03-30T16:30:51.851Z,73.07
2018-03-30T16:33:21.094Z,73.90
2018-03-30T16:35:50.621Z,73.56
2018-03-30T16:38:20.339Z,76.21
2018-03-30T16:41:01.232Z,76.41
2018-03-30T16:46:16.623Z,78.66
2018-03-30T16:49:01.478Z,78.82
2018-03-30T16:54:21.074Z,80.10
2018-03-30T16:56:51.624Z,81.56
2018-03-30T16:59:23.296Z,80.60
2018-03-30T17:01:59.078Z,81.99
2018-03-30T17:04:28.796Z,82.89
2018-03-30T17:06:58.849Z,83.87
2018-03-30T17:09:28.213Z,83.24
2018-03-30T17:11:58.236Z,83.62
2018-03-30T17:14:27.970Z,84.27
2018-03-30T17:16:58.301Z,84.61
2018-03-30T17:19:27.476Z,86.04
2018-03-30T17:21:56.379Z,87.10
2018-03-30T17:24:25.374Z,87.08
2018-03-30T17:26:54.449Z,87.99
2018-03-30T17:29:23.743Z,88.57
2018-03-30T17:31:53.072Z,88.60
2018-03-30T17:34:22.848Z,89.19
2018-03-30T17:36:52.077Z,89.38
2018-03-30T17:39:20.966Z,90.01
2018-03-30T17:41:50.249Z,90.30
2018-03-30T17:44:19.342Z,90.23
2018-03-30T17:46:49.911Z,89.98
2018-03-30T17:49:22.971Z,89.22
2018-03-30T17:51:52.494Z,89.76
2018-03-30T17:54:25.608Z,89.71
2018-03-30T17:56:58.274Z,88.71
2018-03-30T17:59:33.198Z,87.99
2018-03-30T18:02:05.039Z,87.62
2018-03-30T18:04:36.204Z,87.66
2018-03-30T18:07:08.771Z,88.49
2018-03-30T18:09:39.132Z,88.54
2018-03-30T18:12:08.713Z,89.29
2018-03-30T18:14:53.889Z,90.03
2018-03-30T18:17:25.906Z,90.27
2018-03-30T18:19:56.658Z,90.56
2018-03-30T18:22:25.884Z,90.73
2018-03-30T18:24:55.021Z,91.13
2018-03-30T18:27:24.167Z,91.28
2018-03-30T18:29:53.807Z,91.63
2018-03-30T18:32:22.807Z,91.73
2018-03-30T18:34:52.932Z,91.86
2018-03-30T18:37:23.127Z,91.90
2018-03-30T18:39:52.615Z,92.50
2018-03-30T18:42:21.709Z,92.77
2018-03-30T18:44:51.790Z,93.16
2018-03-30T18:47:23.713Z,93.41
2018-03-30T18:49:53.964Z,93.61
2018-03-30T18:52:26.613Z,93.91
2018-03-30T18:54:56.854Z,94.29
2018-03-30T18:57:26.894Z,94.51
2018-03-30T18:59:57.881Z,94.56
2018-03-30T19:02:29.100Z,94.83
2018-03-30T19:04:58.580Z,94.96
2018-03-30T19:07:29.083Z,95.09
2018-03-30T19:10:02.631Z,95.22
2018-03-30T19:12:33.676Z,95.18
2018-03-30T19:15:08.939Z,95.26
2018-03-30T19:17:38.360Z,95.15
2018-03-30T19:20:07.502Z,95.16
2018-03-30T19:22:38.832Z,95.26
2018-03-30T19:25:08.695Z,95.17
2018-03-30T19:27:43.108Z,95.22
2018-03-30T19:30:12.611Z,95.21
2018-03-30T19:32:42.512Z,95.05
2018-03-30T19:35:14.239Z,95.16
2018-03-30T19:37:47.667Z,95.12
2018-03-30T19:40:17.962Z,95.14
2018-03-30T19:42:47.457Z,94.92
2018-03-30T19:45:17.875Z,95.08
2018-03-30T19:47:55.463Z,95.14
2018-03-30T19:53:36.186Z,95.27
2018-03-30T20:02:18.613Z,95.47
2018-03-30T20:04:51.950Z,95.49
2018-03-30T20:07:22.915Z,95.46
2018-03-30T20:10:20.884Z,95.65
2018-03-30T20:12:55.497Z,95.70
2018-03-30T20:15:28.041Z,95.72
2018-03-30T20:17:58.285Z,95.79
2018-03-30T20:20:34.461Z,95.95
2018-03-30T20:25:38.696Z,95.96
2018-03-30T20:28:12.231Z,95.71
2018-03-30T20:30:52.234Z,95.71
2018-03-30T20:33:22.968Z,95.93
2018-03-30T20:35:58.057Z,95.80
2018-03-30T20:38:28.906Z,95.75
2018-03-30T20:43:39.154Z,95.82
2018-03-30T20:46:09.849Z,95.77
2018-03-30T20:48:40.384Z,95.80
2018-03-30T20:51:21.050Z,95.82
2018-03-30T20:59:49.297Z,96.09
2018-03-30T21:02:19.716Z,96.02
2018-03-30T21:04:49.960Z,95.75
2018-03-30T21:07:20.087Z,95.54
2018-03-30T21:09:49.970Z,95.58
2018-03-30T21:12:19.730Z,95.30
2018-03-30T21:17:23.843Z,95.45
2018-03-30T21:19:53.000Z,95.41
2018-03-30T21:24:56.919Z,95.05
2018-03-30T21:27:27.736Z,94.72
2018-03-30T21:29:56.693Z,94.03
2018-03-30T21:32:25.721Z,93.96
2018-03-30T21:34:58.893Z,93.47
2018-03-30T21:37:33.281Z,93.68
2018-03-30T21:40:03.479Z,93.22
2018-03-30T21:42:32.993Z,92.95
2018-03-30T21:45:02.176Z,92.52
2018-03-30T21:47:34.585Z,93.31
2018-03-30T21:50:03.520Z,93.35
2018-03-30T21:52:32.239Z,93.73
2018-03-30T21:55:02.183Z,93.56
2018-03-30T21:57:32.014Z,94.17
2018-03-30T22:00:09.337Z,94.65
2018-03-30T22:02:40.632Z,94.90
2018-03-30T22:05:14.391Z,95.06
2018-03-30T22:07:46.335Z,94.91
2018-03-30T22:10:15.799Z,94.28
2018-03-30T22:12:44.950Z,93.72
2018-03-30T22:15:14.581Z,94.07
2018-03-30T22:17:44.754Z,94.63
2018-03-30T22:20:13.856Z,94.91
2018-03-30T22:22:43.409Z,95.08
2018-03-30T22:25:13.862Z,94.97
2018-03-30T22:27:43.181Z,95.22
2018-03-30T22:30:12.920Z,95.33
2018-03-30T22:32:43.450Z,95.32
2018-03-30T22:35:13.212Z,95.17
2018-03-30T22:37:41.673Z,94.80
2018-03-30T22:40:19.067Z,94.85
2018-03-30T22:42:52.858Z,95.07
2018-03-30T22:45:23.101Z,95.09
2018-03-30T22:47:52.297Z,95.09
2018-03-30T22:50:21.606Z,95.37
2018-03-30T22:52:50.047Z,95.08
2018-03-30T22:55:19.919Z,95.10
2018-03-30T22:57:48.981Z,95.10
2018-03-30T23:00:17.975Z,94.91
2018-03-30T23:02:47.896Z,95.17
2018-03-30T23:05:18.203Z,95.25
2018-03-30T23:07:48.723Z,95.19
2018-03-30T23:10:18.333Z,94.95
2018-03-30T23:12:47.352Z,95.05
2018-03-30T23:15:16.047Z,94.15
2018-03-30T23:17:45.255Z,94.29
2018-03-30T23:20:14.101Z,94.06
2018-03-30T23:22:42.968Z,94.36
2018-03-30T23:25:11.990Z,93.72
2018-03-30T23:27:40.796Z,93.59
2018-03-30T23:30:10.440Z,93.12
2018-03-30T23:42:16.295Z,92.96
2018-03-30T23:44:45.099Z,93.53
2018-03-30T23:47:13.896Z,93.21
2018-03-30T23:49:43.581Z,93.23
2018-03-30T23:52:13.061Z,92.84
2018-03-30T23:54:42.628Z,92.80
2018-03-30T23:57:11.418Z,93.04
2018-03-30T23:59:40.263Z,93.18
